Time;durP1;ratioP1;P1;durP2;ratioP2;P2;SDS_P1;SDS_P2;PMS_P1;PMS_P2;Temp;Humidity;BMP_temperature;BMP_pressure;BME280_temperature;BME280_humidity;BME280_pressure;Samples;Min_cycle;Max_cycle;Signal;HPM_P1;HPM_P2
2022/01/29 00:03:00;;;;;;;5.80;1.90;;;23.80;50.30;;;;;;220312;1271;22563;-59
2022/01/29 00:08:04;;;;;;;4.10;1.70;;;23.70;50.50;;;;;;220309;1268;23842;-59
2022/01/29 00:13:09;;;;;;;4.30;1.90;;;23.60;50.60;;;;;;220360;1267;22612;-58
2022/01/29 00:18:14;;;;;;;4.80;2.00;;;23.50;50.80;;;;;;220282;1268;22876;-57
2022/01/29 00:23:18;;;;;;;4.20;1.90;;;23.30;50.90;;;;;;220565;1268;25361;-59
2022/01/29 00:28:22;;;;;;;3.50;1.80;;;23.20;51.50;;;;;;220154;1268;22553;-54
2022/01/29 00:33:25;;;;;;;4.10;1.50;;;23.10;51.30;;;;;;220229;1268;23426;-56
2022/01/29 00:38:29;;;;;;;4.70;1.80;;;23.00;51.60;;;;;;220470;1266;24294;-56
2022/01/29 00:43:34;;;;;;;3.20;1.60;;;22.90;51.80;;;;;;220321;1268;22560;-57
2022/01/29 00:48:38;;;;;;;3.10;1.60;;;22.80;52.00;;;;;;220422;1271;24684;-59
2022/01/29 00:53:48;;;;;;;3.50;1.90;;;22.80;52.20;;;;;;220441;1268;22626;-57
2022/01/29 00:58:53;;;;;;;5.10;1.70;;;22.70;52.30;;;;;;220182;1268;22544;-56
2022/01/29 01:03:57;;;;;;;4.20;1.90;;;22.60;52.50;;;;;;220307;1268;26448;-58
2022/01/29 01:09:04;;;;;;;3.70;1.80;;;22.50;52.60;;;;;;220320;1268;23025;-59
2022/01/29 01:14:08;;;;;;;4.20;1.90;;;22.40;52.80;;;;;;220175;1271;25626;-58
2022/01/29 01:19:12;;;;;;;3.10;1.60;;;22.50;53.30;;;;;;220263;1268;23410;-58
2022/01/29 01:24:15;;;;;;;3.20;1.60;;;22.90;51.90;;;;;;220432;1268;23095;-58
2022/01/29 01:29:19;;;;;;;3.30;1.60;;;23.20;51.20;;;;;;220249;1271;22553;-57
2022/01/29 01:34:25;;;;;;;3.20;1.40;;;23.40;50.50;;;;;;220402;1271;22799;-57
2022/01/29 01:39:41;;;;;;;3.40;1.80;;;23.50;50.10;;;;;;220300;1271;24433;-60
2022/01/29 01:44:56;;;;;;;5.20;1.70;;;23.60;50.10;;;;;;220226;1271;24387;-57
2022/01/29 01:50:06;;;;;;;5.30;1.70;;;23.70;49.90;;;;;;220151;1270;25007;-57
2022/01/29 01:55:10;;;;;;;3.40;1.70;;;23.70;49.70;;;;;;220078;1271;22766;-58
2022/01/29 02:00:15;;;;;;;3.60;1.80;;;23.80;49.60;;;;;;220176;1270;25499;-58
2022/01/29 02:05:19;;;;;;;3.50;1.60;;;23.80;50.00;;;;;;220415;1270;26583;-58
2022/01/29 02:10:25;;;;;;;3.90;1.80;;;23.90;50.00;;;;;;220204;1270;24700;-57
2022/01/29 02:15:30;;;;;;;4.00;1.70;;;23.90;49.50;;;;;;220441;1268;22531;-60
2022/01/29 02:20:34;;;;;;;3.50;1.90;;;23.90;49.30;;;;;;220256;1268;22531;-57
2022/01/29 02:25:40;;;;;;;4.10;1.80;;;23.90;49.00;;;;;;220133;1268;22549;-55
2022/01/29 02:30:57;;;;;;;3.30;1.90;;;24.00;48.90;;;;;;220506;1268;25572;-59
2022/01/29 02:36:04;;;;;;;6.50;1.90;;;24.00;48.30;;;;;;220553;1268;22706;-59
2022/01/29 02:41:08;;;;;;;4.60;1.80;;;24.10;48.50;;;;;;220665;1268;24288;-58
2022/01/29 02:46:29;;;;;;;3.70;1.90;;;24.10;49.00;;;;;;220719;1268;22560;-57
2022/01/29 02:51:33;;;;;;;3.60;1.80;;;24.20;48.40;;;;;;220620;1268;24287;-59
2022/01/29 02:56:37;;;;;;;4.60;1.70;;;24.20;48.50;;;;;;220676;1268;23331;-60
2022/01/29 03:01:41;;;;;;;3.70;1.90;;;24.20;48.30;;;;;;220151;1268;25560;-57
2022/01/29 03:06:45;;;;;;;3.40;1.70;;;24.20;48.60;;;;;;220578;1268;26513;-57
2022/01/29 03:11:48;;;;;;;4.60;2.10;;;24.20;48.30;;;;;;220386;1268;22666;-57
2022/01/29 03:16:52;;;;;;;2.80;1.40;;;24.20;48.70;;;;;;220340;1268;24574;-58
2022/01/29 03:21:55;;;;;;;4.10;1.60;;;24.20;48.80;;;;;;220668;1268;22528;-58
2022/01/29 03:26:59;;;;;;;3.30;1.80;;;24.10;48.40;;;;;;220088;1268;24400;-56
2022/01/29 03:32:03;;;;;;;4.10;1.90;;;24.20;48.10;;;;;;220349;1268;25573;-58
2022/01/29 03:37:07;;;;;;;5.40;2.00;;;24.20;48.10;;;;;;220466;1267;25598;-58
2022/01/29 03:42:13;;;;;;;3.70;1.90;;;24.20;48.10;;;;;;220229;1268;22526;-58
2022/01/29 03:47:16;;;;;;;3.30;1.80;;;24.30;48.00;;;;;;220623;1268;24283;-58
2022/01/29 03:52:20;;;;;;;3.60;2.00;;;24.30;47.90;;;;;;220413;1268;22549;-58
2022/01/29 03:57:24;;;;;;;3.50;1.70;;;24.10;47.90;;;;;;220337;1268;22547;-58
2022/01/29 04:02:27;;;;;;;3.20;1.60;;;24.00;48.20;;;;;;220290;1268;22557;-59
2022/01/29 04:07:31;;;;;;;4.10;1.80;;;23.90;48.50;;;;;;220498;1268;22535;-56
2022/01/29 04:12:41;;;;;;;4.20;1.90;;;23.70;48.90;;;;;;220405;1268;22771;-58
2022/01/29 04:17:45;;;;;;;3.30;1.90;;;23.60;49.10;;;;;;220350;1268;24257;-58
2022/01/29 04:22:48;;;;;;;3.60;1.80;;;23.50;49.40;;;;;;220322;1268;22548;-58
2022/01/29 04:27:52;;;;;;;7.50;2.30;;;23.30;49.70;;;;;;220128;1268;24373;-58
2022/01/29 04:33:01;;;;;;;4.30;2.00;;;23.20;50.60;;;;;;220349;1268;24205;-60
2022/01/29 04:38:05;;;;;;;3.30;1.70;;;23.10;50.20;;;;;;220396;1267;24326;-58
2022/01/29 04:43:08;;;;;;;4.00;1.80;;;23.00;50.40;;;;;;220059;1270;22604;-56
2022/01/29 04:48:12;;;;;;;4.10;1.70;;;22.90;50.90;;;;;;220426;1271;22696;-58
2022/01/29 04:53:16;;;;;;;3.40;1.70;;;22.90;50.80;;;;;;220216;1270;24945;-57
2022/01/29 04:58:20;;;;;;;3.50;1.70;;;22.80;50.90;;;;;;220088;1270;24320;-60
2022/01/29 05:03:23;;;;;;;4.30;2.00;;;22.70;51.00;;;;;;220226;1271;22668;-56
2022/01/29 05:08:27;;;;;;;4.40;1.90;;;22.60;51.20;;;;;;220257;1268;25859;-57
2022/01/29 05:13:32;;;;;;;4.00;1.80;;;22.50;51.30;;;;;;220419;1268;24891;-60
2022/01/29 05:29:32;;;;;;;4.70;1.80;;;22.70;51.60;;;;;;220506;1268;25460;-57
2022/01/29 05:34:36;;;;;;;4.30;1.80;;;23.00;50.60;;;;;;220343;1268;22555;-59
2022/01/29 05:39:39;;;;;;;3.40;1.50;;;23.20;50.00;;;;;;220284;1268;22591;-58
2022/01/29 05:44:43;;;;;;;6.00;1.80;;;23.40;49.80;;;;;;220181;1268;22533;-58
2022/01/29 05:49:46;;;;;;;2.90;1.50;;;23.50;49.20;;;;;;220412;1273;22540;-59
2022/01/29 05:54:51;;;;;;;3.60;1.70;;;23.60;49.00;;;;;;220179;1268;25263;-58
2022/01/29 05:59:54;;;;;;;4.50;1.50;;;23.70;49.40;;;;;;219938;1271;180248;-57
2022/01/29 06:04:58;;;;;;;3.00;1.70;;;23.70;49.00;;;;;;220275;1273;25543;-58
2022/01/29 06:10:03;;;;;;;4.60;1.80;;;23.70;48.70;;;;;;220363;1268;25576;-59
2022/01/29 06:15:12;;;;;;;4.50;1.90;;;23.80;49.30;;;;;;220730;1268;22537;-57
2022/01/29 06:20:16;;;;;;;3.50;1.60;;;23.80;48.90;;;;;;220387;1268;22541;-57
2022/01/29 06:25:21;;;;;;;4.50;2.00;;;23.80;48.70;;;;;;220436;1268;22592;-56
2022/01/29 06:30:24;;;;;;;3.60;1.70;;;23.80;48.60;;;;;;220307;1271;24243;-58
2022/01/29 06:35:30;;;;;;;4.10;1.90;;;23.80;48.40;;;;;;220400;1268;22545;-60
2022/01/29 06:40:35;;;;;;;4.30;1.70;;;23.80;48.40;;;;;;220232;1268;23141;-58
2022/01/29 06:45:41;;;;;;;3.80;1.90;;;23.90;48.40;;;;;;220363;1268;22542;-59
2022/01/29 06:50:44;;;;;;;4.20;1.80;;;23.90;48.50;;;;;;220314;1268;25358;-60
2022/01/29 06:55:48;;;;;;;2.70;1.40;;;23.90;48.90;;;;;;220232;1268;25338;-58
2022/01/29 07:00:52;;;;;;;3.70;2.00;;;23.90;48.10;;;;;;220641;1268;24337;-56
2022/01/29 07:05:56;;;;;;;4.20;1.90;;;23.90;48.30;;;;;;220537;1268;22550;-58
2022/01/29 07:11:00;;;;;;;3.90;1.60;;;24.00;48.20;;;;;;220441;1268;22542;-58
2022/01/29 07:16:04;;;;;;;5.60;2.00;;;24.00;48.20;;;;;;219888;1268;22547;-58
2022/01/29 07:21:14;;;;;;;;;;;24.00;48.10;;;;;;219973;1268;22565;-59
2022/01/29 07:26:20;;;;;;;2.70;1.50;;;24.00;48.30;;;;;;220437;1268;25366;-57
2022/01/29 07:31:25;;;;;;;4.60;2.00;;;24.00;48.50;;;;;;220576;1268;22550;-58
2022/01/29 07:36:29;;;;;;;4.30;1.80;;;24.00;48.10;;;;;;220111;1268;22565;-56
2022/01/29 07:41:35;;;;;;;4.10;2.00;;;24.00;47.80;;;;;;220526;1268;22531;-58
2022/01/29 07:46:40;;;;;;;3.90;2.10;;;24.10;47.70;;;;;;220305;1268;22557;-57
2022/01/29 07:51:44;;;;;;;5.80;2.50;;;24.10;47.50;;;;;;220269;1268;24224;-59
2022/01/29 07:56:47;;;;;;;5.00;2.00;;;24.10;47.40;;;;;;221312;1265;22718;-59
2022/01/29 08:01:51;;;;;;;5.20;2.10;;;24.10;47.40;;;;;;220313;1265;22573;-57
2022/01/29 08:06:58;;;;;;;3.90;1.90;;;24.20;47.60;;;;;;220681;1265;25453;-58
2022/01/29 08:12:01;;;;;;;3.90;2.20;;;24.20;47.60;;;;;;220589;1265;24425;-61
2022/01/29 08:17:09;;;;;;;5.90;2.10;;;24.20;47.10;;;;;;220506;1265;22877;-58
2022/01/29 08:22:13;;;;;;;7.60;2.20;;;24.20;47.20;;;;;;220838;1265;23941;-57
2022/01/29 08:27:17;;;;;;;5.40;2.40;;;24.20;47.30;;;;;;221076;1265;22624;-57
2022/01/29 08:32:30;;;;;;;7.50;2.50;;;24.20;47.30;;;;;;220867;1265;25622;-58
2022/01/29 08:37:36;;;;;;;11.00;2.40;;;24.20;46.90;;;;;;221083;1265;22728;-61
2022/01/29 08:42:40;;;;;;;7.30;2.70;;;24.20;47.20;;;;;;221220;1265;24519;-59
2022/01/29 08:47:49;;;;;;;9.80;3.20;;;24.10;48.60;;;;;;221512;1265;22564;-59
2022/01/29 08:52:53;;;;;;;11.40;3.00;;;23.90;48.00;;;;;;221499;1265;22719;-58
2022/01/29 08:58:00;;;;;;;7.70;2.70;;;23.80;48.00;;;;;;221083;1265;25380;-59
2022/01/29 09:03:06;;;;;;;8.10;3.00;;;23.60;48.50;;;;;;221157;1265;23005;-63
2022/01/29 09:08:14;;;;;;;8.60;3.00;;;23.50;48.40;;;;;;221069;1265;23049;-59
2022/01/29 09:13:17;;;;;;;10.00;3.00;;;23.50;48.70;;;;;;221251;1265;22568;-61
2022/01/29 09:18:24;;;;;;;10.00;2.80;;;23.50;49.20;;;;;;221162;1265;24166;-61
2022/01/29 09:23:28;;;;;;;9.80;2.80;;;23.30;49.40;;;;;;221249;1265;22546;-61
2022/01/29 09:28:36;;;;;;;11.80;2.90;;;23.20;50.00;;;;;;221357;1265;22722;-53
2022/01/29 09:33:41;;;;;;;13.70;3.00;;;23.10;50.60;;;;;;221388;1265;24288;-57
2022/01/29 09:38:45;;;;;;;12.10;2.60;;;23.10;50.90;;;;;;221314;1265;22561;-57
2022/01/29 09:43:55;;;;;;;9.50;2.70;;;23.00;51.90;;;;;;221082;1268;25618;-57
2022/01/29 09:48:59;;;;;;;14.40;3.20;;;23.00;52.50;;;;;;221428;1265;22541;-57
2022/01/29 09:54:03;;;;;;;15.50;3.30;;;22.90;52.60;;;;;;221238;1265;22529;-57
2022/01/29 09:59:09;;;;;;;7.80;2.30;;;22.90;52.80;;;;;;221219;1265;24082;-57
2022/01/29 10:04:29;;;;;;;10.00;2.80;;;22.90;53.00;;;;;;221288;1265;22531;-56
2022/01/29 10:09:34;;;;;;;11.50;2.40;;;22.80;53.20;;;;;;221400;1265;26058;-56
2022/01/29 10:14:58;;;;;;;12.60;3.30;;;22.80;53.70;;;;;;220975;1265;22546;-57
2022/01/29 10:20:34;;;;;;;12.30;2.90;;;22.70;53.60;;;;;;221099;1265;25321;-57
2022/01/29 10:25:42;;;;;;;8.00;2.80;;;22.60;54.80;;;;;;219973;1265;25255;-59
2022/01/29 10:30:49;;;;;;;11.00;3.00;;;22.60;54.70;;;;;;220880;1265;22598;-57
2022/01/29 10:35:58;;;;;;;10.30;3.30;;;22.50;54.70;;;;;;220938;1265;22566;-57
2022/01/29 10:41:35;;;;;;;11.30;4.10;;;22.40;54.70;;;;;;220937;1268;22594;-57
2022/01/29 10:46:55;;;;;;;12.40;3.30;;;22.40;55.00;;;;;;221254;1265;22628;-56
2022/01/29 10:52:07;;;;;;;11.90;3.90;;;22.40;54.90;;;;;;220990;1268;22547;-55
2022/01/29 10:57:24;;;;;;;16.50;4.20;;;22.30;53.00;;;;;;220833;1265;24441;-57
2022/01/29 11:02:32;;;;;;;14.10;3.60;;;22.10;51.80;;;;;;221938;1265;22600;-54
2022/01/29 11:07:38;;;;;;;10.60;3.30;;;22.30;48.50;;;;;;220439;1265;24494;-56
2022/01/29 11:12:49;;;;;;;9.20;3.10;;;22.80;48.00;;;;;;220745;1265;24334;-55
2022/01/29 11:17:58;;;;;;;10.70;3.50;;;23.10;47.50;;;;;;220573;1268;25301;-55
2022/01/29 11:23:12;;;;;;;9.30;3.60;;;23.40;47.40;;;;;;220464;1265;24303;-55
2022/01/29 11:28:26;;;;;;;11.90;3.80;;;23.50;47.20;;;;;;220096;1265;25815;-57
2022/01/29 11:33:32;;;;;;;8.50;3.60;;;23.70;47.50;;;;;;220849;1265;22578;-57
2022/01/29 11:38:39;;;;;;;7.20;3.30;;;23.70;47.30;;;;;;220276;1265;22551;-56
2022/01/29 11:43:49;;;;;;;9.90;3.30;;;23.80;47.30;;;;;;220391;1265;22627;-56
2022/01/29 11:49:21;;;;;;;8.20;3.40;;;23.80;47.20;;;;;;220911;1265;24194;-57
2022/01/29 11:54:27;;;;;;;6.60;3.00;;;23.80;47.40;;;;;;220696;1268;24272;-56
2022/01/29 11:59:34;;;;;;;7.30;3.10;;;23.90;47.00;;;;;;220351;1265;22840;-57
2022/01/29 12:04:54;;;;;;;8.00;3.40;;;23.90;47.30;;;;;;220292;1265;24430;-57
2022/01/29 12:10:12;;;;;;;9.10;3.50;;;23.90;47.10;;;;;;220687;1265;25637;-53
2022/01/29 12:15:22;;;;;;;7.10;3.00;;;23.90;47.20;;;;;;220626;1265;25564;-56
2022/01/29 12:20:30;;;;;;;6.60;3.00;;;24.00;47.00;;;;;;221017;1265;25308;-56
2022/01/29 12:25:35;;;;;;;7.70;3.80;;;24.10;47.20;;;;;;220551;1265;22718;-57
2022/01/29 12:30:41;;;;;;;12.40;3.30;;;24.10;47.30;;;;;;220447;1265;23073;-57
2022/01/29 12:35:54;;;;;;;7.50;3.00;;;24.10;47.20;;;;;;220787;1266;24443;-56
2022/01/29 12:41:04;;;;;;;8.60;3.00;;;24.20;47.10;;;;;;220509;1265;22541;-55
2022/01/29 12:46:18;;;;;;;5.50;3.10;;;24.20;47.30;;;;;;220300;1265;25370;-56
2022/01/29 12:51:34;;;;;;;6.80;2.50;;;24.10;47.40;;;;;;220764;1265;22580;-56
2022/01/29 12:56:46;;;;;;;5.70;2.60;;;23.90;47.80;;;;;;220280;1265;22537;-56
2022/01/29 13:01:56;;;;;;;8.20;3.10;;;23.80;48.50;;;;;;220175;1265;22535;-57
2022/01/29 13:07:07;;;;;;;6.00;2.90;;;23.60;49.00;;;;;;220221;1265;27597;-57
2022/01/29 13:12:18;;;;;;;5.40;2.50;;;23.40;49.70;;;;;;220116;1265;25502;-57
2022/01/29 13:17:31;;;;;;;8.60;2.70;;;23.40;50.00;;;;;;221503;1265;22806;-57
2022/01/29 13:22:41;;;;;;;5.90;2.50;;;23.10;50.30;;;;;;221380;1265;24163;-57
2022/01/29 13:27:48;;;;;;;8.90;2.40;;;23.10;50.70;;;;;;221634;1265;26597;-56
2022/01/29 13:33:06;;;;;;;6.30;2.40;;;23.00;50.90;;;;;;221346;1265;22541;-56
2022/01/29 13:38:10;;;;;;;5.80;2.40;;;23.00;50.90;;;;;;220291;1265;22603;-57
2022/01/29 13:43:24;;;;;;;4.00;2.20;;;23.00;51.00;;;;;;220770;1265;22582;-56
2022/01/29 13:48:51;;;;;;;6.80;2.60;;;22.90;51.10;;;;;;221063;1266;25558;-58
2022/01/29 13:54:05;;;;;;;6.20;2.40;;;22.90;51.20;;;;;;220235;1265;22694;-58
2022/01/29 13:59:12;;;;;;;6.20;2.70;;;22.80;51.30;;;;;;220659;1265;22568;-57
2022/01/29 14:10:14;;;;;;;7.50;2.60;;;22.70;51.80;;;;;;220212;1265;22572;-57
2022/01/29 14:15:20;;;;;;;5.40;3.00;;;22.70;51.60;;;;;;220660;1265;25368;-56
2022/01/29 14:20:33;;;;;;;9.30;2.60;;;22.60;52.00;;;;;;220393;1265;24433;-57
2022/01/29 14:25:37;;;;;;;6.30;2.50;;;22.40;51.80;;;;;;220927;1265;22535;-57
2022/01/29 14:30:45;;;;;;;7.40;2.60;;;22.40;51.90;;;;;;220823;1265;22556;-58
2022/01/29 14:35:54;;;;;;;5.70;2.50;;;22.30;51.90;;;;;;220933;1265;25652;-58
2022/01/29 14:40:58;;;;;;;4.90;2.30;;;22.30;52.10;;;;;;220904;1265;25558;-57
2022/01/29 14:46:04;;;;;;;7.30;3.10;;;22.30;52.10;;;;;;220422;1265;22538;-57
2022/01/29 14:51:09;;;;;;;5.30;2.40;;;22.40;51.60;;;;;;220528;1265;22573;-57
2022/01/29 14:56:13;;;;;;;3.80;2.10;;;22.80;51.10;;;;;;220315;1265;24221;-57
2022/01/29 15:01:18;;;;;;;5.00;2.20;;;23.00;50.30;;;;;;220277;1265;22543;-57
2022/01/29 15:06:25;;;;;;;6.30;2.30;;;23.20;49.90;;;;;;220151;1265;22556;-56
2022/01/29 15:11:30;;;;;;;4.80;1.90;;;23.30;49.50;;;;;;220315;1265;22747;-60
2022/01/29 15:16:41;;;;;;;4.50;2.10;;;23.40;49.60;;;;;;220516;1265;22561;-57
2022/01/29 15:21:46;;;;;;;3.80;2.20;;;23.50;49.80;;;;;;220861;1265;22550;-57
2022/01/29 15:26:51;;;;;;;6.30;2.50;;;23.60;48.90;;;;;;223804;1265;22610;-58
2022/01/29 15:31:55;;;;;;;6.90;2.00;;;23.70;48.60;;;;;;220907;1264;24479;-57
2022/01/29 15:37:09;;;;;;;3.80;1.90;;;23.70;48.50;;;;;;220286;1265;22535;-59
2022/01/29 15:42:34;;;;;;;5.40;2.20;;;23.70;48.30;;;;;;220100;1265;25368;-57
2022/01/29 15:47:50;;;;;;;5.90;2.20;;;23.80;47.70;;;;;;220687;1266;24269;-59
2022/01/29 15:52:58;;;;;;;7.50;2.40;;;23.90;48.00;;;;;;220278;1265;25653;-60
2022/01/29 15:58:14;;;;;;;5.30;2.40;;;23.90;48.60;;;;;;220378;1265;24238;-58
2022/01/29 16:03:23;;;;;;;5.60;2.30;;;24.00;48.50;;;;;;220710;1265;24815;-57
2022/01/29 16:08:28;;;;;;;5.50;2.50;;;24.10;48.20;;;;;;220073;1265;24232;-57
2022/01/29 16:13:32;;;;;;;4.50;2.50;;;24.10;48.10;;;;;;221311;1264;25452;-53
2022/01/29 16:18:36;;;;;;;5.60;2.50;;;24.00;48.30;;;;;;220794;1265;26362;-52
2022/01/29 16:23:41;;;;;;;5.80;2.30;;;23.90;49.00;;;;;;220144;1265;22570;-58
2022/01/29 16:28:45;;;;;;;5.30;2.50;;;23.90;49.40;;;;;;222258;1264;23039;-54
2022/01/29 16:33:52;;;;;;;4.80;2.60;;;23.60;49.30;;;;;;220638;1265;22584;-55
2022/01/29 16:38:55;;;;;;;12.20;3.40;;;23.50;50.10;;;;;;220768;1265;24222;-58
2022/01/29 16:44:02;;;;;;;6.20;3.10;;;23.40;49.00;;;;;;220592;1265;25366;-58
2022/01/29 16:49:08;;;;;;;9.60;3.50;;;23.30;48.70;;;;;;220298;1265;22544;-59
2022/01/29 16:54:14;;;;;;;5.80;2.80;;;23.20;48.00;;;;;;220712;1265;24266;-60
2022/01/29 16:59:19;;;;;;;6.80;3.20;;;23.10;48.30;;;;;;220311;1265;25746;-55
2022/01/29 17:04:30;;;;;;;5.30;2.60;;;23.10;48.50;;;;;;220799;1265;22538;-55
2022/01/29 17:09:45;;;;;;;7.40;3.00;;;23.10;48.60;;;;;;220275;1264;22616;-52
2022/01/29 17:14:56;;;;;;;;;;;23.00;48.90;;;;;;220416;1265;22528;-54
2022/01/29 17:20:04;;;;;;;7.50;3.50;;;22.90;49.10;;;;;;220378;1264;25429;-52
2022/01/29 17:25:10;;;;;;;7.60;3.30;;;22.90;49.80;;;;;;220770;1265;22754;-53
2022/01/29 17:30:14;;;;;;;6.80;3.30;;;22.80;49.60;;;;;;220804;1265;24245;-53
2022/01/29 17:35:20;;;;;;;7.00;3.00;;;22.80;50.20;;;;;;220961;1265;22755;-54
2022/01/29 17:40:24;;;;;;;13.30;3.30;;;22.80;49.90;;;;;;221059;1265;25318;-52
2022/01/29 17:45:29;;;;;;;8.70;3.70;;;22.80;50.00;;;;;;220953;1266;22691;-51
2022/01/29 17:50:34;;;;;;;9.10;3.70;;;22.80;50.40;;;;;;220846;1265;22614;-54
2022/01/29 17:55:38;;;;;;;18.00;5.30;;;22.70;50.40;;;;;;220171;1265;22534;-51
2022/01/29 18:00:43;;;;;;;11.20;5.00;;;22.60;51.50;;;;;;220562;1265;341744;-54
2022/01/29 18:06:02;;;;;;;11.90;4.60;;;22.60;52.90;;;;;;220161;1265;24221;-53
2022/01/29 18:11:16;;;;;;;8.50;3.90;;;22.30;52.50;;;;;;220473;1265;22541;-52
2022/01/29 18:16:29;;;;;;;9.00;3.80;;;22.30;51.90;;;;;;220668;1265;24214;-53
2022/01/29 18:22:05;;;;;;;9.50;3.90;;;22.10;52.10;;;;;;220795;1265;24302;-50
2022/01/29 18:27:29;;;;;;;10.00;3.90;;;22.10;52.30;;;;;;220857;1265;24393;-53
2022/01/29 18:32:58;;;;;;;9.80;3.80;;;22.20;52.20;;;;;;220869;1265;22708;-53
2022/01/29 18:38:26;;;;;;;12.30;3.90;;;22.50;51.60;;;;;;220864;1265;22542;-51
2022/01/29 18:43:41;;;;;;;7.90;3.40;;;22.80;51.10;;;;;;220786;1264;23120;-51
2022/01/29 18:48:48;;;;;;;9.30;3.80;;;23.00;50.60;;;;;;221246;1265;22734;-52
2022/01/29 18:53:52;;;;;;;8.10;3.40;;;23.10;51.10;;;;;;220943;1265;22704;-55
2022/01/29 18:58:57;;;;;;;10.40;3.90;;;23.20;51.10;;;;;;220985;1265;26992;-52
2022/01/29 19:04:01;;;;;;;8.80;3.40;;;23.40;50.40;;;;;;220881;1265;23614;-52
2022/01/29 19:09:18;;;;;;;11.90;3.60;;;23.60;50.00;;;;;;220744;1265;23169;-54
2022/01/29 19:14:23;;;;;;;11.00;3.60;;;23.70;49.90;;;;;;221197;1265;22653;-55
2022/01/29 19:19:32;;;;;;;8.00;4.10;;;23.70;49.70;;;;;;221024;1265;22531;-57
2022/01/29 19:24:37;;;;;;;7.50;3.90;;;23.80;50.40;;;;;;221037;1265;26125;-57
2022/01/29 19:29:44;;;;;;;12.20;4.60;;;23.90;50.60;;;;;;221272;1265;25426;-58
2022/01/29 19:34:48;;;;;;;8.20;3.40;;;23.90;51.80;;;;;;221269;1265;24208;-53
2022/01/29 19:40:02;;;;;;;11.40;3.80;;;23.90;51.20;;;;;;221191;1263;23173;-55
2022/01/29 19:45:26;;;;;;;6.50;3.10;;;23.70;51.40;;;;;;221255;1265;25609;-56
2022/01/29 19:50:29;;;;;;;10.60;3.30;;;23.40;52.00;;;;;;221212;1265;25658;-54
2022/01/29 19:55:35;;;;;;;8.70;3.60;;;23.20;52.60;;;;;;220826;1265;24223;-57
2022/01/29 20:00:39;;;;;;;8.50;3.10;;;23.10;53.30;;;;;;220950;1265;26484;-57
2022/01/29 20:05:50;;;;;;;8.30;3.50;;;23.00;52.60;;;;;;220572;1265;25554;-54
2022/01/29 20:11:01;;;;;;;10.30;3.40;;;23.00;53.20;;;;;;221018;1265;23030;-55
2022/01/29 20:16:07;;;;;;;5.80;2.90;;;23.00;53.90;;;;;;220849;1265;22523;-58
2022/01/29 20:21:12;;;;;;;8.20;3.10;;;22.90;53.50;;;;;;220675;1267;22538;-56
2022/01/29 20:26:17;;;;;;;9.00;3.40;;;22.90;53.20;;;;;;220762;1265;22555;-56
2022/01/29 20:31:20;;;;;;;11.40;2.80;;;22.90;53.50;;;;;;220707;1264;25267;-55
2022/01/29 20:36:32;;;;;;;6.90;3.10;;;22.70;53.90;;;;;;220792;1265;22867;-55
2022/01/29 20:41:36;;;;;;;7.50;2.50;;;22.60;54.20;;;;;;220793;1264;22550;-57
2022/01/29 20:46:44;;;;;;;6.30;2.60;;;22.50;54.10;;;;;;221309;1265;24384;-57
2022/01/29 20:51:48;;;;;;;8.20;2.50;;;22.50;54.20;;;;;;220393;1265;22551;-57
2022/01/29 20:56:53;;;;;;;9.30;3.50;;;22.50;54.00;;;;;;221020;1265;22534;-58
2022/01/29 21:01:57;;;;;;;9.00;3.30;;;22.60;54.10;;;;;;221022;1264;22532;-55
2022/01/29 21:07:21;;;;;;;6.20;2.70;;;22.70;53.60;;;;;;220832;1264;25509;-55
2022/01/29 21:12:25;;;;;;;6.20;2.80;;;22.50;53.20;;;;;;221282;1265;22563;-57
2022/01/29 21:17:28;;;;;;;8.20;2.80;;;22.40;53.40;;;;;;221300;1265;22618;-56
2022/01/29 21:22:32;;;;;;;8.30;3.00;;;22.40;52.50;;;;;;221105;1265;25505;-56
2022/01/29 21:27:42;;;;;;;5.90;2.50;;;22.30;52.50;;;;;;220504;1264;22544;-56
2022/01/29 21:32:45;;;;;;;7.20;2.60;;;22.30;52.80;;;;;;220603;1267;25954;-55
2022/01/29 21:37:49;;;;;;;6.00;2.40;;;22.20;53.50;;;;;;222804;1265;22597;-55
2022/01/29 21:42:53;;;;;;;9.30;2.60;;;22.20;53.80;;;;;;220655;1265;24370;-56
2022/01/29 21:47:57;;;;;;;6.70;2.60;;;22.20;55.60;;;;;;220877;1265;22554;-55
2022/01/29 21:53:02;;;;;;;7.00;2.40;;;22.10;56.10;;;;;;221087;1265;24221;-56
2022/01/29 21:58:10;;;;;;;9.40;2.40;;;22.10;55.60;;;;;;221202;1265;23921;-55
2022/01/29 22:03:16;;;;;;;6.00;2.30;;;22.10;56.40;;;;;;221070;1264;25596;-57
2022/01/29 22:08:24;;;;;;;9.40;2.80;;;22.10;55.90;;;;;;221140;1265;22558;-55
2022/01/29 22:13:28;;;;;;;6.00;2.20;;;22.00;55.70;;;;;;220790;1265;22551;-58
2022/01/29 22:18:32;;;;;;;7.50;2.10;;;22.00;55.90;;;;;;220912;1265;22626;-57
2022/01/29 22:23:38;;;;;;;7.00;1.80;;;22.00;55.70;;;;;;220926;1265;24423;-55
2022/01/29 22:28:46;;;;;;;4.00;1.80;;;21.90;55.80;;;;;;220505;1265;22767;-55
2022/01/29 22:33:53;;;;;;;5.40;2.10;;;21.90;55.90;;;;;;221074;1265;22571;-55
2022/01/29 22:39:14;;;;;;;;;;;21.90;55.60;;;;;;220842;1265;22529;-55
2022/01/29 22:44:21;;;;;;;5.20;2.10;;;21.90;55.90;;;;;;221028;1265;26641;-56
2022/01/29 22:49:33;;;;;;;6.00;1.90;;;21.80;55.50;;;;;;220997;1265;24199;-57
2022/01/29 22:54:39;;;;;;;5.60;2.20;;;21.80;55.90;;;;;;220875;1265;24211;-56
2022/01/29 22:59:48;;;;;;;4.10;1.60;;;21.80;56.00;;;;;;221287;1264;22569;-55
2022/01/29 23:04:52;;;;;;;6.50;2.00;;;21.80;55.70;;;;;;221143;1265;22547;-58
2022/01/29 23:10:10;;;;;;;4.90;2.10;;;21.80;55.50;;;;;;220942;1265;25669;-57
2022/01/29 23:15:19;;;;;;;4.40;2.20;;;21.90;55.40;;;;;;220864;1265;24293;-56
2022/01/29 23:20:57;;;;;;;5.80;1.80;;;22.30;54.50;;;;;;220793;1265;24253;-56
2022/01/29 23:26:21;;;;;;;4.40;1.70;;;22.70;53.40;;;;;;221344;1265;22986;-56
2022/01/29 23:31:37;;;;;;;4.00;1.60;;;22.90;53.00;;;;;;220939;1265;22557;-57
2022/01/29 23:37:02;;;;;;;5.30;1.60;;;22.80;53.30;;;;;;220528;1265;22680;-55
2022/01/29 23:52:47;;;;;;;4.20;1.50;;;23.00;52.70;;;;;;220641;1265;23021;-56
2022/01/29 23:57:56;;;;;;;5.40;1.70;;;23.00;52.80;;;;;;220978;1265;22759;-53
